createdAt,value
2022-08-12T00:02:04.249Z,4.80
2022-08-12T00:04:09.431Z,4.37
2022-08-12T00:06:32.369Z,4.10
2022-08-12T00:08:54.441Z,4.63
2022-08-12T00:11:15.941Z,4.00
2022-08-12T00:13:36.491Z,4.10
2022-08-12T00:15:58.003Z,3.83
2022-08-12T00:18:18.345Z,3.80
2022-08-12T00:20:38.815Z,3.97
2022-08-12T00:23:01.428Z,4.10
2022-08-12T00:26:00.421Z,3.97
2022-08-12T00:28:05.013Z,3.97
2022-08-12T00:30:26.258Z,3.87
2022-08-12T00:32:54.314Z,4.10
2022-08-12T00:35:16.796Z,3.83
2022-08-12T00:37:38.650Z,4.43
2022-08-12T00:40:00.800Z,4.23
2022-08-12T00:42:11.899Z,4.20
2022-08-12T00:44:16.250Z,4.10
2022-08-12T00:46:36.391Z,3.90
2022-08-12T00:48:39.569Z,4.70
2022-08-12T00:50:44.133Z,3.80
2022-08-12T00:52:48.054Z,4.20
2022-08-12T00:54:54.695Z,4.00
2022-08-12T00:57:00.026Z,4.53
2022-08-12T00:59:04.461Z,4.03
2022-08-12T01:01:09.345Z,4.10
2022-08-12T01:03:16.584Z,4.07
2022-08-12T01:05:39.470Z,4.47
2022-08-12T01:08:00.921Z,4.37
2022-08-12T01:10:27.565Z,4.20
2022-08-12T01:12:37.401Z,4.80
2022-08-12T01:14:41.996Z,4.60
2022-08-12T01:16:45.176Z,4.13
2022-08-12T01:18:47.959Z,4.30
2022-08-12T01:21:01.131Z,4.37
2022-08-12T01:23:27.781Z,4.33
2022-08-12T01:25:55.530Z,4.73
2022-08-12T01:28:01.863Z,4.23
2022-08-12T01:30:08.619Z,4.10
2022-08-12T01:32:14.313Z,4.60
2022-08-12T01:34:35.605Z,4.53
2022-08-12T01:36:44.291Z,4.07
2022-08-12T01:38:49.227Z,4.30
2022-08-12T01:40:54.090Z,4.00
2022-08-12T01:43:01.111Z,4.17
2022-08-12T01:45:04.655Z,4.47
2022-08-12T01:47:30.980Z,4.20
2022-08-12T01:49:48.449Z,4.20
2022-08-12T01:52:21.590Z,3.90
2022-08-12T01:54:25.806Z,4.40
2022-08-12T01:56:33.400Z,4.40
2022-08-12T01:58:57.341Z,4.53
2022-08-12T02:01:04.752Z,4.00
2022-08-12T02:03:23.764Z,4.80
2022-08-12T02:05:53.795Z,4.00
2022-08-12T02:08:26.256Z,4.27
2022-08-12T02:11:01.273Z,4.47
2022-08-12T02:13:15.882Z,4.77
2022-08-12T02:15:45.653Z,4.20
2022-08-12T02:18:01.175Z,4.50
2022-08-12T02:20:14.193Z,4.73
2022-08-12T02:22:28.557Z,4.00
2022-08-12T02:24:33.830Z,4.40
2022-08-12T02:26:40.420Z,4.60
2022-08-12T02:28:44.714Z,4.80
2022-08-12T02:30:47.848Z,4.57
2022-08-12T02:32:52.876Z,4.43
2022-08-12T02:34:57.071Z,4.77
2022-08-12T02:37:02.534Z,4.63
2022-08-12T02:39:09.022Z,4.87
2022-08-12T02:41:13.991Z,4.70
2022-08-12T02:43:27.304Z,4.40
2022-08-12T02:45:39.683Z,4.57
2022-08-12T02:47:59.621Z,4.87
2022-08-12T02:50:05.551Z,4.23
2022-08-12T02:52:09.943Z,4.60
2022-08-12T02:54:12.944Z,4.47
2022-08-12T02:56:18.428Z,4.30
2022-08-12T02:58:21.435Z,4.40
2022-08-12T03:00:38.837Z,4.70
2022-08-12T03:02:46.108Z,4.60
2022-08-12T03:04:56.401Z,4.23
2022-08-12T03:07:05.412Z,4.23
2022-08-12T03:09:12.454Z,4.50
2022-08-12T03:11:22.262Z,5.03
2022-08-12T03:13:27.463Z,5.15
2022-08-12T03:15:31.214Z,5.03
2022-08-12T03:17:44.248Z,4.47
2022-08-12T03:20:10.228Z,4.60
2022-08-12T03:22:14.630Z,4.70
2022-08-12T03:24:18.510Z,4.43
2022-08-12T03:26:25.856Z,4.37
2022-08-12T03:28:47.889Z,4.63
2022-08-12T03:30:56.698Z,4.87
2022-08-12T03:33:03.652Z,5.27
2022-08-12T03:35:08.685Z,5.10
2022-08-12T03:37:32.031Z,5.20
2022-08-12T03:39:43.640Z,4.90
2022-08-12T03:41:54.525Z,4.85
2022-08-12T03:44:20.096Z,4.95
2022-08-12T03:46:51.570Z,4.67
2022-08-12T03:49:13.852Z,4.90
2022-08-12T03:51:34.374Z,5.50
2022-08-12T03:53:55.912Z,4.50
2022-08-12T03:56:16.288Z,5.07
2022-08-12T03:58:38.753Z,4.88
2022-08-12T04:00:41.571Z,5.30
2022-08-12T04:02:44.358Z,5.10
2022-08-12T04:04:49.301Z,5.50
2022-08-12T04:06:52.815Z,5.28
2022-08-12T04:08:57.512Z,4.73
2022-08-12T04:11:17.817Z,4.97
2022-08-12T04:13:23.921Z,4.70
2022-08-12T04:15:27.793Z,4.68
2022-08-12T04:17:31.081Z,5.00
2022-08-12T04:19:34.284Z,4.93
2022-08-12T04:21:42.183Z,5.57
2022-08-12T04:24:04.812Z,5.15
2022-08-12T04:26:07.800Z,4.97
2022-08-12T04:28:13.481Z,5.25
2022-08-12T04:30:32.743Z,4.70
2022-08-12T04:32:39.687Z,4.75
2022-08-12T04:34:46.800Z,4.97
2022-08-12T04:36:50.776Z,5.20
2022-08-12T04:38:57.724Z,5.13
2022-08-12T04:41:02.608Z,5.15
2022-08-12T04:43:06.991Z,5.40
2022-08-12T04:45:30.131Z,5.20
2022-08-12T04:47:33.221Z,5.07
2022-08-12T04:49:36.906Z,5.50
2022-08-12T04:51:40.900Z,5.53
2022-08-12T04:53:47.190Z,5.30
2022-08-12T04:55:49.879Z,5.70
2022-08-12T04:57:53.269Z,5.00
2022-08-12T04:59:55.955Z,5.30
2022-08-12T05:01:58.703Z,6.00
2022-08-12T05:04:02.770Z,5.50
2022-08-12T05:06:05.925Z,5.45
2022-08-12T05:08:12.801Z,5.13
2022-08-12T05:10:17.744Z,5.10
2022-08-12T05:12:20.763Z,5.40
2022-08-12T05:14:23.919Z,5.65
2022-08-12T05:16:30.799Z,5.30
2022-08-12T05:18:35.401Z,5.30
2022-08-12T05:20:43.924Z,5.53
2022-08-12T05:22:46.649Z,5.95
2022-08-12T05:24:49.286Z,5.60
2022-08-12T05:26:53.418Z,5.47
2022-08-12T05:28:56.230Z,5.50
2022-08-12T05:31:01.994Z,5.27
2022-08-12T05:33:05.750Z,5.30
2022-08-12T05:35:09.267Z,5.47
2022-08-12T05:37:11.899Z,6.00
2022-08-12T05:39:14.712Z,5.13
2022-08-12T05:41:20.495Z,5.13
2022-08-12T05:43:26.506Z,5.10
2022-08-12T05:45:29.204Z,4.87
2022-08-12T05:47:52.642Z,5.10
2022-08-12T05:49:54.658Z,4.40
2022-08-12T05:51:57.846Z,5.10
2022-08-12T05:54:00.975Z,4.70
2022-08-12T05:56:03.916Z,4.87
2022-08-12T05:58:07.727Z,4.80
2022-08-12T06:00:12.746Z,5.10
2022-08-12T06:02:15.387Z,5.17
2022-08-12T06:04:18.137Z,4.40
2022-08-12T06:06:22.431Z,4.70
2022-08-12T06:08:26.397Z,4.87
2022-08-12T06:10:32.265Z,4.43
2022-08-12T06:12:35.640Z,4.63
2022-08-12T06:14:39.282Z,4.60
2022-08-12T06:16:44.192Z,4.20
2022-08-12T06:18:47.724Z,4.60
2022-08-12T06:20:50.478Z,4.73
2022-08-12T06:22:56.449Z,4.30
2022-08-12T06:25:00.437Z,4.57
2022-08-12T06:27:03.351Z,4.57
2022-08-12T06:29:06.040Z,4.60
2022-08-12T06:31:25.394Z,3.93
2022-08-12T06:33:55.641Z,4.73
2022-08-12T06:35:57.683Z,4.33
2022-08-12T06:38:03.604Z,4.80
2022-08-12T06:40:08.184Z,4.20
2022-08-12T06:42:32.904Z,4.60
2022-08-12T06:44:45.009Z,4.37
2022-08-12T06:46:48.056Z,4.77
2022-08-12T06:48:56.315Z,4.43
2022-08-12T06:51:01.661Z,4.63
2022-08-12T06:53:06.618Z,4.40
2022-08-12T06:55:11.913Z,4.50
2022-08-12T06:58:08.089Z,4.30
2022-08-12T06:59:38.751Z,4.60
2022-08-12T07:01:41.566Z,4.50
2022-08-12T07:03:55.427Z,4.57
2022-08-12T07:05:59.697Z,5.00
2022-08-12T07:08:11.962Z,3.87
2022-08-12T07:10:14.641Z,4.13
2022-08-12T07:12:19.405Z,4.60
2022-08-12T07:14:22.086Z,4.70
2022-08-12T07:16:26.805Z,4.77
2022-08-12T07:18:32.253Z,3.83
2022-08-12T07:20:52.243Z,4.60
2022-08-12T07:22:55.963Z,4.60
2022-08-12T07:25:16.260Z,4.20
2022-08-12T07:27:18.922Z,4.30
2022-08-12T07:29:22.913Z,4.47
2022-08-12T07:31:26.862Z,3.90
2022-08-12T07:33:31.129Z,3.60
2022-08-12T07:35:34.466Z,4.20
2022-08-12T07:37:42.782Z,4.00
2022-08-12T07:39:50.719Z,3.90
2022-08-12T07:42:03.168Z,4.10
2022-08-12T07:44:08.128Z,3.90
2022-08-12T07:46:12.768Z,3.47
2022-08-12T07:48:15.459Z,3.57
2022-08-12T07:50:23.552Z,3.13
2022-08-12T07:52:26.657Z,3.60
2022-08-12T07:54:30.854Z,3.40
2022-08-12T07:56:33.741Z,3.20
2022-08-12T07:58:41.165Z,3.30
2022-08-12T08:00:46.686Z,3.47
2022-08-12T08:02:54.406Z,3.77
2022-08-12T08:04:56.183Z,3.53
2022-08-12T08:07:00.326Z,3.40
2022-08-12T08:09:05.783Z,3.30
2022-08-12T08:11:29.850Z,3.10
2022-08-12T08:13:32.881Z,3.40
2022-08-12T08:18:02.579Z,3.33
2022-08-12T08:20:06.274Z,3.20
2022-08-12T08:22:10.510Z,3.50
2022-08-12T08:24:16.748Z,3.00
2022-08-12T08:26:22.358Z,3.27
2022-08-12T08:28:25.031Z,3.20
2022-08-12T08:30:28.563Z,3.10
2022-08-12T08:32:32.164Z,3.30
2022-08-12T08:34:53.003Z,3.23
2022-08-12T08:36:57.719Z,3.43
2022-08-12T08:39:00.393Z,3.73
2022-08-12T08:42:15.896Z,3.30
2022-08-12T08:43:45.431Z,3.13
2022-08-12T08:45:49.425Z,3.50
2022-08-12T08:47:52.653Z,3.20
2022-08-12T08:50:00.864Z,3.10
2022-08-12T08:52:03.788Z,3.60
2022-08-12T08:54:08.449Z,3.33
2022-08-12T08:56:11.939Z,3.30
2022-08-12T08:58:16.134Z,2.90
2022-08-12T09:00:21.812Z,3.37
2022-08-12T09:02:24.529Z,3.27
2022-08-12T09:05:12.892Z,3.30
2022-08-12T09:06:53.387Z,3.23
2022-08-12T09:08:56.817Z,3.57
2022-08-12T09:12:11.095Z,3.40
2022-08-12T09:14:11.087Z,4.00
2022-08-12T09:16:07.836Z,3.73
2022-08-12T09:18:12.725Z,3.63
2022-08-12T09:20:17.131Z,3.63
2022-08-12T09:22:22.445Z,3.30
2022-08-12T09:24:31.986Z,3.60
2022-08-12T09:26:45.885Z,3.63
2022-08-12T09:28:50.366Z,3.40
2022-08-12T09:30:58.971Z,3.20
2022-08-12T09:33:14.392Z,3.40
2022-08-12T09:35:28.580Z,3.47
2022-08-12T09:37:55.087Z,3.60
2022-08-12T09:40:04.205Z,3.10
2022-08-12T09:42:38.073Z,3.43
2022-08-12T09:45:19.192Z,3.13
2022-08-12T09:47:29.528Z,3.50
2022-08-12T09:49:38.533Z,3.40
2022-08-12T09:51:47.502Z,3.33
2022-08-12T09:54:05.944Z,3.20
2022-08-12T09:56:59.902Z,3.40
2022-08-12T09:58:57.728Z,4.00
2022-08-12T10:01:15.481Z,3.63
2022-08-12T10:03:32.098Z,3.40
2022-08-12T10:06:27.037Z,3.60
2022-08-12T10:08:05.751Z,3.70
2022-08-12T10:10:24.390Z,3.43
2022-08-12T10:13:06.478Z,3.30
2022-08-12T10:15:09.194Z,3.50
2022-08-12T10:17:22.791Z,3.30
2022-08-12T10:19:36.317Z,3.23
2022-08-12T10:21:42.088Z,3.43
2022-08-12T10:23:48.440Z,3.37
2022-08-12T10:26:37.278Z,3.70
2022-08-12T10:29:02.761Z,3.23
2022-08-12T10:31:06.469Z,3.10
2022-08-12T10:33:18.340Z,3.30
2022-08-12T10:35:22.009Z,3.23
2022-08-12T10:38:34.014Z,3.47
2022-08-12T10:40:05.788Z,3.10
2022-08-12T10:42:30.691Z,3.43
2022-08-12T10:44:36.481Z,3.50
2022-08-12T10:46:39.312Z,3.30
2022-08-12T10:48:43.094Z,3.30
2022-08-12T10:51:51.762Z,3.90
2022-08-12T10:53:44.066Z,3.33
2022-08-12T10:55:55.969Z,3.33
2022-08-12T10:58:15.375Z,3.80
2022-08-12T11:00:30.983Z,3.47
2022-08-12T11:04:18.991Z,3.20
2022-08-12T11:05:00.663Z,3.40
2022-08-12T11:08:36.596Z,3.00
2022-08-12T11:09:56.030Z,3.23
2022-08-12T11:12:55.897Z,2.93
2022-08-12T11:14:50.260Z,3.17
2022-08-12T11:17:33.968Z,3.10
2022-08-12T11:19:22.297Z,2.93
2022-08-12T11:21:56.593Z,2.70
2022-08-12T11:23:53.679Z,3.03
2022-08-12T11:26:05.165Z,2.73
2022-08-12T11:28:08.729Z,3.10
2022-08-12T11:30:30.743Z,3.23
2022-08-12T11:32:38.882Z,3.00
2022-08-12T11:34:53.001Z,3.50
2022-08-12T11:36:58.574Z,2.90
2022-08-12T11:39:05.238Z,2.83
2022-08-12T11:41:09.438Z,2.80
2022-08-12T11:43:12.074Z,3.03
2022-08-12T11:45:22.086Z,3.10
2022-08-12T11:47:25.998Z,2.73
2022-08-12T11:49:31.478Z,3.30
2022-08-12T11:51:38.810Z,2.93
2022-08-12T11:53:59.335Z,3.13
2022-08-12T11:56:03.839Z,3.20
2022-08-12T11:59:31.368Z,3.10
2022-08-12T12:02:54.139Z,3.13
2022-08-12T12:04:56.912Z,3.30
2022-08-12T12:07:07.435Z,3.50
2022-08-12T12:09:13.706Z,3.17
2022-08-12T12:11:19.931Z,3.40
2022-08-12T12:14:08.006Z,3.20
2022-08-12T12:15:47.437Z,3.80
2022-08-12T12:17:55.735Z,2.90
2022-08-12T12:19:58.695Z,3.10
2022-08-12T12:22:01.355Z,2.60
2022-08-12T12:24:04.404Z,3.50
2022-08-12T12:26:09.868Z,3.33
2022-08-12T12:28:37.354Z,3.17
2022-08-12T12:30:54.507Z,3.40
2022-08-12T12:32:57.718Z,3.20
2022-08-12T12:35:13.822Z,3.10
2022-08-12T12:37:59.103Z,2.93
2022-08-12T12:39:55.367Z,3.20
2022-08-12T12:42:42.818Z,3.13
2022-08-12T12:44:26.110Z,3.50
2022-08-12T12:46:41.093Z,3.00
2022-08-12T12:48:47.347Z,3.30
2022-08-12T12:51:12.084Z,3.40
2022-08-12T12:54:06.645Z,3.00
2022-08-12T12:55:41.513Z,3.50
2022-08-12T12:57:59.743Z,3.43
2022-08-12T13:00:18.758Z,3.33
2022-08-12T13:02:32.082Z,3.20
2022-08-12T13:04:37.144Z,3.10
2022-08-12T13:06:41.882Z,3.20
2022-08-12T13:08:46.867Z,3.27
2022-08-12T13:10:50.180Z,3.10
2022-08-12T13:12:53.973Z,3.50
2022-08-12T13:14:57.605Z,2.80
2022-08-12T13:17:02.979Z,3.20
2022-08-12T13:19:06.805Z,3.27
2022-08-12T13:21:15.508Z,2.93
2022-08-12T13:23:37.037Z,3.10
2022-08-12T13:25:41.729Z,3.20
2022-08-12T13:27:48.472Z,3.10
2022-08-12T13:29:51.273Z,3.17
2022-08-12T13:32:18.727Z,3.10
2022-08-12T13:34:33.449Z,3.33
2022-08-12T13:36:38.214Z,2.83
2022-08-12T13:38:54.162Z,3.40
2022-08-12T13:40:58.397Z,3.00
2022-08-12T13:43:02.442Z,3.70
2022-08-12T13:45:09.445Z,3.60
2022-08-12T13:47:20.035Z,3.00
2022-08-12T13:49:55.439Z,3.00
2022-08-12T13:51:52.837Z,3.00
2022-08-12T13:53:59.115Z,3.47
2022-08-12T13:56:02.971Z,2.83
2022-08-12T13:58:12.524Z,3.13
2022-08-12T14:00:16.955Z,3.33
2022-08-12T14:02:22.717Z,3.10
2022-08-12T14:04:27.313Z,3.30
2022-08-12T14:06:30.258Z,3.07
2022-08-12T14:08:36.182Z,3.03
2022-08-12T14:10:51.125Z,3.00
2022-08-12T14:12:55.793Z,3.13
2022-08-12T14:14:58.941Z,2.90
2022-08-12T14:17:09.820Z,3.00
2022-08-12T14:19:22.610Z,3.57
2022-08-12T14:21:29.932Z,2.97
2022-08-12T14:24:04.154Z,3.20
2022-08-12T14:26:11.663Z,3.20
2022-08-12T14:28:17.020Z,3.13
2022-08-12T14:30:28.863Z,3.00
2022-08-12T14:32:34.874Z,3.10
2022-08-12T14:34:38.434Z,3.60
2022-08-12T14:36:41.141Z,2.87
2022-08-12T14:38:46.185Z,3.30
2022-08-12T14:40:52.346Z,3.10
2022-08-12T14:42:55.150Z,3.10
2022-08-12T14:45:01.496Z,2.47
2022-08-12T14:47:07.529Z,2.90
2022-08-12T14:50:01.309Z,2.50
2022-08-12T14:52:43.447Z,2.80
2022-08-12T14:56:03.392Z,2.40
2022-08-12T14:59:00.963Z,2.90
2022-08-12T15:01:40.115Z,2.60
2022-08-12T15:03:52.731Z,2.80
2022-08-12T15:06:05.949Z,2.70
2022-08-12T15:08:26.531Z,2.90
2022-08-12T15:10:32.358Z,2.70
2022-08-12T15:12:40.679Z,2.50
2022-08-12T15:14:45.650Z,2.63
2022-08-12T15:16:48.549Z,3.10
2022-08-12T15:18:55.383Z,2.87
2022-08-12T15:21:06.201Z,2.70
2022-08-12T15:23:17.528Z,2.60
2022-08-12T15:25:24.291Z,2.70
2022-08-12T15:28:04.599Z,2.47
2022-08-12T15:29:52.265Z,2.50
2022-08-12T15:32:00.490Z,2.83
2022-08-12T15:34:06.288Z,2.90
2022-08-12T15:36:09.314Z,2.80
2022-08-12T15:38:17.195Z,2.60
2022-08-12T15:40:30.390Z,2.70
2022-08-12T15:42:34.161Z,2.77
2022-08-12T15:44:42.713Z,2.80
2022-08-12T15:46:47.162Z,2.90
2022-08-12T15:48:49.817Z,2.50
2022-08-12T15:50:55.266Z,2.60
2022-08-12T15:52:59.327Z,2.83
2022-08-12T15:55:18.081Z,2.97
2022-08-12T15:57:24.361Z,2.60
2022-08-12T15:59:51.366Z,2.70
2022-08-12T16:01:52.965Z,3.00
2022-08-12T16:04:00.156Z,2.90
2022-08-12T16:06:19.506Z,2.50
2022-08-12T16:08:27.492Z,2.60
2022-08-12T16:10:31.794Z,2.37
2022-08-12T16:12:39.608Z,2.40
2022-08-12T16:14:43.094Z,2.40
2022-08-12T16:16:48.538Z,2.60
2022-08-12T16:18:56.423Z,2.70
2022-08-12T16:20:59.316Z,2.33
2022-08-12T16:23:26.259Z,2.50
2022-08-12T16:26:00.143Z,2.50
2022-08-12T16:27:53.842Z,2.50
2022-08-12T16:29:59.110Z,2.70
2022-08-12T16:32:03.669Z,2.90
2022-08-12T16:34:10.918Z,2.73
2022-08-12T16:36:29.631Z,2.90
2022-08-12T16:38:33.441Z,2.53
2022-08-12T16:40:37.592Z,2.70
2022-08-12T16:42:54.077Z,2.83
2022-08-12T16:45:05.705Z,2.37
2022-08-12T16:47:16.608Z,2.97
2022-08-12T16:49:23.276Z,2.73
2022-08-12T16:51:26.573Z,2.60
2022-08-12T16:53:43.205Z,2.17
2022-08-12T16:55:52.127Z,2.23
2022-08-12T16:57:54.854Z,2.33
2022-08-12T16:59:59.266Z,2.70
2022-08-12T17:02:02.398Z,2.70
2022-08-12T17:04:09.109Z,2.63
2022-08-12T17:06:13.343Z,2.50
2022-08-12T17:08:29.176Z,2.10
2022-08-12T17:10:35.842Z,2.50
2022-08-12T17:12:40.149Z,2.83
2022-08-12T17:14:43.682Z,2.50
2022-08-12T17:16:56.033Z,2.40
2022-08-12T17:19:08.840Z,2.57
2022-08-12T17:21:17.538Z,2.33
2022-08-12T17:23:23.274Z,2.10
2022-08-12T17:25:26.794Z,2.37
2022-08-12T17:27:34.058Z,2.00
2022-08-12T17:30:02.679Z,2.30
2022-08-12T17:32:05.394Z,2.40
2022-08-12T17:34:28.844Z,2.63
2022-08-12T17:36:33.990Z,1.90
2022-08-12T17:38:36.739Z,2.00
2022-08-12T17:40:42.298Z,1.90
2022-08-12T17:42:47.829Z,2.00
2022-08-12T17:44:52.551Z,2.10
2022-08-12T17:46:57.260Z,2.20
2022-08-12T17:49:00.469Z,2.00
2022-08-12T17:51:15.074Z,2.23
2022-08-12T17:53:21.034Z,1.90
2022-08-12T17:55:36.708Z,1.90
2022-08-12T17:57:48.282Z,2.00
2022-08-12T17:59:58.008Z,2.20
2022-08-12T18:02:02.228Z,2.03
2022-08-12T18:04:21.824Z,2.10
2022-08-12T18:06:27.758Z,2.40
2022-08-12T18:08:33.276Z,2.30
2022-08-12T18:10:54.816Z,2.30
2022-08-12T18:13:02.148Z,2.00
2022-08-12T18:15:08.873Z,2.27
2022-08-12T18:17:13.862Z,2.27
2022-08-12T18:19:17.410Z,2.13
2022-08-12T18:21:20.155Z,2.47
2022-08-12T18:23:24.234Z,2.60
2022-08-12T18:26:15.852Z,2.30
2022-08-12T18:28:16.853Z,2.40
2022-08-12T18:30:29.998Z,2.50
2022-08-12T18:32:58.400Z,2.40
2022-08-12T18:34:58.375Z,3.50
2022-08-12T18:37:41.143Z,2.67
2022-08-12T18:39:51.780Z,2.30
2022-08-12T18:41:58.056Z,2.33
2022-08-12T18:44:04.557Z,2.53
2022-08-12T18:46:12.163Z,2.70
2022-08-12T18:48:16.562Z,2.60
2022-08-12T18:50:19.215Z,2.90
2022-08-12T18:52:31.004Z,2.77
2022-08-12T18:54:35.801Z,2.73
2022-08-12T18:56:39.764Z,3.20
2022-08-12T18:58:59.294Z,3.00
2022-08-12T19:01:02.896Z,2.90
2022-08-12T19:03:06.229Z,3.10
2022-08-12T19:05:52.772Z,2.90
2022-08-12T19:08:00.691Z,3.10
2022-08-12T19:10:05.660Z,2.87
2022-08-12T19:12:30.259Z,2.80
2022-08-12T19:14:38.092Z,2.93
2022-08-12T19:16:41.254Z,3.00
2022-08-12T19:18:45.733Z,2.60
2022-08-12T19:20:48.467Z,2.60
2022-08-12T19:22:59.785Z,2.57
2022-08-12T19:25:59.804Z,2.50
2022-08-12T19:27:51.801Z,2.40
2022-08-12T19:30:04.846Z,2.60
2022-08-12T19:32:11.706Z,2.23
2022-08-12T19:35:13.821Z,2.33
2022-08-12T19:36:41.382Z,2.67
2022-08-12T19:38:46.920Z,3.30
2022-08-12T19:41:03.929Z,2.57
2022-08-12T19:43:17.886Z,2.50
2022-08-12T19:45:24.633Z,2.50
2022-08-12T19:47:46.697Z,2.80
2022-08-12T19:49:52.852Z,2.40
2022-08-12T19:51:59.061Z,2.53
2022-08-12T19:54:02.346Z,2.70
2022-08-12T19:56:05.988Z,2.60
2022-08-12T19:58:18.202Z,2.97
2022-08-12T20:00:22.293Z,2.60
2022-08-12T20:02:33.073Z,2.70
2022-08-12T20:04:38.383Z,2.30
2022-08-12T20:06:41.798Z,2.50
2022-08-12T20:08:48.613Z,2.60
2022-08-12T20:12:12.452Z,2.87
2022-08-12T20:13:37.679Z,2.70
2022-08-12T20:15:45.051Z,2.43
2022-08-12T20:17:51.366Z,2.50
2022-08-12T20:20:16.783Z,2.50
2022-08-12T20:22:24.235Z,2.87
2022-08-12T20:24:36.884Z,2.57
2022-08-12T20:26:41.053Z,2.40
2022-08-12T20:28:45.383Z,2.30
2022-08-12T20:30:53.658Z,2.70
2022-08-12T20:33:03.787Z,2.53
2022-08-12T20:35:10.127Z,2.73
2022-08-12T20:37:14.230Z,2.83
2022-08-12T20:39:51.821Z,2.33
2022-08-12T20:41:42.059Z,3.27
2022-08-12T20:43:44.711Z,2.87
2022-08-12T20:45:50.971Z,3.13
2022-08-12T20:48:04.337Z,2.80
2022-08-12T20:50:10.455Z,2.73
2022-08-12T20:52:15.300Z,2.77
2022-08-12T20:54:21.538Z,2.50
2022-08-12T20:56:31.265Z,2.57
2022-08-12T20:58:34.286Z,3.07
2022-08-12T21:00:36.902Z,2.70
2022-08-12T21:02:43.580Z,2.50
2022-08-12T21:05:16.357Z,2.70
2022-08-12T21:07:23.550Z,2.90
2022-08-12T21:09:28.706Z,2.80
2022-08-12T21:11:32.632Z,2.80
2022-08-12T21:13:39.098Z,2.80
2022-08-12T21:15:54.511Z,2.80
2022-08-12T21:18:15.563Z,3.20
2022-08-12T21:20:26.844Z,3.07
2022-08-12T21:22:33.279Z,2.50
2022-08-12T21:24:36.218Z,3.10
2022-08-12T21:26:53.437Z,2.90
2022-08-12T21:29:01.215Z,2.80
2022-08-12T21:32:35.237Z,2.60
2022-08-12T21:33:31.113Z,3.00
2022-08-12T21:35:35.987Z,3.40
2022-08-12T21:37:53.113Z,3.10
2022-08-12T21:39:56.793Z,2.60
2022-08-12T21:42:02.473Z,2.80
2022-08-12T21:44:24.395Z,2.70
2022-08-12T21:46:38.682Z,3.43
2022-08-12T21:48:41.358Z,2.97
2022-08-12T21:50:51.210Z,3.20
2022-08-12T21:52:55.789Z,3.30
2022-08-12T21:54:59.550Z,3.07
2022-08-12T21:57:02.227Z,3.00
2022-08-12T21:59:13.574Z,2.83
2022-08-12T22:01:22.601Z,2.90
2022-08-12T22:04:03.896Z,2.90
2022-08-12T22:06:31.500Z,2.63
2022-08-12T22:08:45.365Z,2.97
2022-08-12T22:10:52.334Z,2.83
2022-08-12T22:12:58.424Z,3.17
2022-08-12T22:15:04.778Z,3.10
2022-08-12T22:17:10.875Z,2.63
2022-08-12T22:19:14.982Z,3.13
2022-08-12T22:21:22.152Z,3.00
2022-08-12T22:23:28.626Z,2.90
2022-08-12T22:25:52.027Z,2.90
2022-08-12T22:28:12.487Z,2.70
2022-08-12T22:30:32.728Z,3.03
2022-08-12T22:32:41.805Z,2.77
2022-08-12T22:34:45.782Z,2.90
2022-08-12T22:36:49.669Z,2.70
2022-08-12T22:38:55.891Z,2.83
2022-08-12T22:41:03.348Z,2.70
2022-08-12T22:43:24.379Z,2.90
2022-08-12T22:45:58.995Z,2.50
2022-08-12T22:48:01.944Z,2.80
2022-08-12T22:50:07.870Z,3.17
2022-08-12T22:52:12.599Z,3.13
2022-08-12T22:54:35.272Z,3.20
2022-08-12T22:56:39.314Z,2.53
2022-08-12T22:58:44.241Z,2.73
2022-08-12T23:00:52.802Z,2.83
2022-08-12T23:02:59.381Z,2.67
2022-08-12T23:05:04.004Z,3.03
2022-08-12T23:07:11.870Z,2.83
2022-08-12T23:09:18.958Z,3.20
2022-08-12T23:11:36.222Z,2.70
2022-08-12T23:13:55.380Z,3.20
2022-08-12T23:15:59.275Z,3.43
2022-08-12T23:18:03.737Z,2.77
2022-08-12T23:20:07.250Z,3.03
2022-08-12T23:23:05.898Z,3.03
2022-08-12T23:24:37.278Z,3.17
2022-08-12T23:26:58.695Z,3.00
2022-08-12T23:29:29.530Z,2.60
2022-08-12T23:32:03.085Z,2.60
2022-08-12T23:34:06.782Z,3.03
2022-08-12T23:36:09.570Z,3.00
2022-08-12T23:38:31.052Z,3.33
2022-08-12T23:40:34.904Z,3.20
2022-08-12T23:42:39.441Z,3.20
2022-08-12T23:44:52.461Z,3.00
2022-08-12T23:47:00.328Z,2.90
2022-08-12T23:49:04.115Z,2.80
2022-08-12T23:51:32.276Z,2.80
2022-08-12T23:53:37.784Z,3.10
2022-08-12T23:55:45.552Z,2.90
2022-08-12T23:58:18.597Z,3.00
